Time;durP1;ratioP1;P1;durP2;ratioP2;P2;SDS_P1;SDS_P2;PMS_P1;PMS_P2;Temp;Humidity;BMP_temperature;BMP_pressure;BME280_temperature;BME280_humidity;BME280_pressure;Samples;Min_cycle;Max_cycle;Signal;HPM_P1;HPM_P2
2022/05/21 00:02:14;;;;;;;0.22;0.05;;;;;;;;;;5090922;28;20466;-62
2022/05/21 00:04:41;;;;;;;0.00;0.00;;;;;;;;;;5091434;28;20587;-63
2022/05/21 00:07:07;;;;;;;0.00;0.00;;;;;;;;;;5088730;28;20036;-63
2022/05/21 00:09:33;;;;;;;0.00;0.00;;;;;;;;;;5090559;28;20074;-61
2022/05/21 00:11:58;;;;;;;0.00;0.00;;;;;;;;;;5090953;28;20039;-62
2022/05/21 00:14:23;;;;;;;0.00;0.00;;;;;;;;;;5090771;28;20028;-63
2022/05/21 00:16:49;;;;;;;0.00;0.00;;;;;;;;;;5091286;28;20472;-63
2022/05/21 00:19:14;;;;;;;0.00;0.00;;;;;;;;;;5090004;28;20380;-64
2022/05/21 00:21:39;;;;;;;0.00;0.00;;;;;;;;;;5091136;28;20119;-64
2022/05/21 00:24:05;;;;;;;0.00;0.00;;;;;;;;;;5090375;28;20457;-63
2022/05/21 00:26:31;;;;;;;0.00;0.00;;;;;;;;;;5090005;28;20024;-62
2022/05/21 00:28:56;;;;;;;0.00;0.00;;;;;;;;;;5090989;28;20012;-62
2022/05/21 00:31:22;;;;;;;0.00;0.00;;;;;;;;;;5074076;28;20480;-62
2022/05/21 00:33:48;;;;;;;0.00;0.00;;;;;;;;;;5090898;28;20032;-62
2022/05/21 00:36:13;;;;;;;0.00;0.00;;;;;;;;;;5089478;28;20020;-63
2022/05/21 00:38:39;;;;;;;0.00;0.00;;;;;;;;;;5091653;28;20036;-62
2022/05/21 00:41:05;;;;;;;0.00;0.00;;;;;;;;;;5090238;28;20510;-61
2022/05/21 00:43:33;;;;;;;0.25;0.25;;;;;;;;;;5090316;28;20049;-61
2022/05/21 00:45:59;;;;;;;0.00;0.00;;;;;;;;;;5091688;28;20616;-62
2022/05/21 00:48:24;;;;;;;5.13;1.40;;;;;;;;;;5089405;28;20058;-62
2022/05/21 00:50:49;;;;;;;0.25;0.25;;;;;;;;;;5090567;28;20069;-63
2022/05/21 00:53:15;;;;;;;0.20;0.20;;;;;;;;;;5090083;28;20035;-61
2022/05/21 00:55:41;;;;;;;0.00;0.00;;;;;;;;;;5090087;28;20457;-61
2022/05/21 01:00:54;;;;;;;0.00;0.00;;;;;;;;;;5088339;28;20030;-63
2022/05/21 01:03:19;;;;;;;0.00;0.00;;;;;;;;;;5089120;28;20552;-63
2022/05/21 01:05:46;;;;;;;0.00;0.00;;;;;;;;;;5089949;28;20112;-63
2022/05/21 01:08:11;;;;;;;0.00;0.00;;;;;;;;;;5088678;28;20499;-63
2022/05/21 01:10:38;;;;;;;0.00;0.00;;;;;;;;;;5089964;28;20032;-62
2022/05/21 01:13:06;;;;;;;0.00;0.00;;;;;;;;;;5089122;28;20024;-64
2022/05/21 01:15:40;;;;;;;0.00;0.00;;;;;;;;;;5088686;28;20410;-64
2022/05/21 01:18:07;;;;;;;0.00;0.00;;;;;;;;;;5090053;28;20031;-62
2022/05/21 01:20:47;;;;;;;0.47;0.47;;;;;;;;;;5088774;28;20366;-63
2022/05/21 01:23:13;;;;;;;0.00;0.00;;;;;;;;;;5089562;28;20020;-63
2022/05/21 01:25:39;;;;;;;0.00;0.00;;;;;;;;;;5089872;28;20483;-63
2022/05/21 01:28:07;;;;;;;0.00;0.00;;;;;;;;;;5089963;28;20052;-61
2022/05/21 01:30:39;;;;;;;0.00;0.00;;;;;;;;;;5089333;28;20050;-66
2022/05/21 01:33:06;;;;;;;0.00;0.00;;;;;;;;;;5088748;28;20028;-62
2022/05/21 01:35:32;;;;;;;0.00;0.00;;;;;;;;;;5089601;28;20024;-62
2022/05/21 01:37:57;;;;;;;0.00;0.00;;;;;;;;;;5089945;28;20028;-63
2022/05/21 01:40:22;;;;;;;0.00;0.00;;;;;;;;;;5089645;28;20458;-63
2022/05/21 01:44:37;;;;;;;0.00;0.00;;;;;;;;;;5090884;28;20385;-63
2022/05/21 01:45:33;;;;;;;0.00;0.00;;;;;;;;;;5089207;28;20084;-62
2022/05/21 01:47:58;;;;;;;0.00;0.00;;;;;;;;;;5088129;28;20106;-62
2022/05/21 01:50:23;;;;;;;0.00;0.00;;;;;;;;;;5088847;28;20464;-63
2022/05/21 01:52:49;;;;;;;0.00;0.00;;;;;;;;;;5089477;28;20027;-62
2022/05/21 01:55:14;;;;;;;0.00;0.00;;;;;;;;;;5088479;28;20024;-62
2022/05/21 01:57:39;;;;;;;0.00;0.00;;;;;;;;;;5089223;28;20137;-63
2022/05/21 02:00:05;;;;;;;0.00;0.00;;;;;;;;;;5087968;28;20015;-63
2022/05/21 02:02:30;;;;;;;0.00;0.00;;;;;;;;;;5087604;28;20027;-62
2022/05/21 02:04:57;;;;;;;0.00;0.00;;;;;;;;;;5089434;28;20035;-62
2022/05/21 02:07:22;;;;;;;0.00;0.00;;;;;;;;;;5072258;28;20032;-61
2022/05/21 02:09:47;;;;;;;0.00;0.00;;;;;;;;;;5066650;28;20504;-62
2022/05/21 02:12:16;;;;;;;0.00;0.00;;;;;;;;;;5065185;28;20270;-63
2022/05/21 02:14:41;;;;;;;0.00;0.00;;;;;;;;;;5068133;28;20492;-63
2022/05/21 02:17:06;;;;;;;0.00;0.00;;;;;;;;;;5066905;28;20024;-62
2022/05/21 02:19:33;;;;;;;0.00;0.00;;;;;;;;;;5067979;28;20432;-61
2022/05/21 02:21:58;;;;;;;0.00;0.00;;;;;;;;;;5067016;28;20461;-62
2022/05/21 02:24:23;;;;;;;0.00;0.00;;;;;;;;;;5066122;28;20078;-61
2022/05/21 02:26:49;;;;;;;0.00;0.00;;;;;;;;;;5062439;28;20020;-62
2022/05/21 02:29:14;;;;;;;0.00;0.00;;;;;;;;;;5067485;28;20021;-63
2022/05/21 02:31:39;;;;;;;0.00;0.00;;;;;;;;;;5066932;28;20075;-63
2022/05/21 02:34:04;;;;;;;0.00;0.00;;;;;;;;;;5068463;28;20017;-62
2022/05/21 02:39:26;;;;;;;0.00;0.00;;;;;;;;;;5063273;28;20036;-63
2022/05/21 02:41:51;;;;;;;0.00;0.00;;;;;;;;;;5068783;28;20469;-61
2022/05/21 02:44:17;;;;;;;0.00;0.00;;;;;;;;;;5063264;28;20074;-62
2022/05/21 02:46:42;;;;;;;0.00;0.00;;;;;;;;;;5065020;28;20029;-63
2022/05/21 02:49:07;;;;;;;0.00;0.00;;;;;;;;;;5067028;28;20024;-63
2022/05/21 02:51:32;;;;;;;0.00;0.00;;;;;;;;;;5066412;28;20017;-62
2022/05/21 02:53:58;;;;;;;0.00;0.00;;;;;;;;;;5066705;28;20105;-62
2022/05/21 02:56:23;;;;;;;0.00;0.00;;;;;;;;;;5064184;28;20529;-62
2022/05/21 02:58:48;;;;;;;0.00;0.00;;;;;;;;;;5066579;28;20029;-60
2022/05/21 03:01:14;;;;;;;0.00;0.00;;;;;;;;;;5066014;28;20052;-62
2022/05/21 03:03:39;;;;;;;0.00;0.00;;;;;;;;;;5068101;28;20020;-61
2022/05/21 03:06:04;;;;;;;0.00;0.00;;;;;;;;;;5069936;28;20020;-61
2022/05/21 03:11:13;;;;;;;0.00;0.00;;;;;;;;;;5087470;28;20050;-60
2022/05/21 03:13:39;;;;;;;0.00;0.00;;;;;;;;;;5088279;28;20457;-61
2022/05/21 03:16:05;;;;;;;0.00;0.00;;;;;;;;;;5088302;28;20391;-61
2022/05/21 03:18:30;;;;;;;0.00;0.00;;;;;;;;;;5088014;28;20714;-61
2022/05/21 03:20:55;;;;;;;0.00;0.00;;;;;;;;;;5088229;28;20028;-61
2022/05/21 03:23:20;;;;;;;0.00;0.00;;;;;;;;;;5088125;28;20039;-62
2022/05/21 03:25:46;;;;;;;0.10;0.10;;;;;;;;;;5087929;28;20028;-62
2022/05/21 03:28:15;;;;;;;0.00;0.00;;;;;;;;;;5086488;28;20266;-62
2022/05/21 03:30:40;;;;;;;0.00;0.00;;;;;;;;;;5086896;28;20032;-62
2022/05/21 03:33:05;;;;;;;0.00;0.00;;;;;;;;;;5088400;28;20034;-61
2022/05/21 03:35:33;;;;;;;0.00;0.00;;;;;;;;;;5087667;28;20101;-62
2022/05/21 03:38:00;;;;;;;0.00;0.00;;;;;;;;;;5088008;28;20031;-61
2022/05/21 03:40:26;;;;;;;0.00;0.00;;;;;;;;;;5092341;28;20818;-62
2022/05/21 03:42:52;;;;;;;0.00;0.00;;;;;;;;;;5092919;28;20016;-62
2022/05/21 03:45:17;;;;;;;0.00;0.00;;;;;;;;;;5091428;28;20028;-61
2022/05/21 03:47:43;;;;;;;0.00;0.00;;;;;;;;;;5091684;28;20481;-60
2022/05/21 03:50:09;;;;;;;0.00;0.00;;;;;;;;;;5090491;28;20066;-63
2022/05/21 03:52:34;;;;;;;0.00;0.00;;;;;;;;;;5089804;28;20031;-62
2022/05/21 03:55:00;;;;;;;0.00;0.00;;;;;;;;;;5089767;28;20514;-63
2022/05/21 03:57:25;;;;;;;0.00;0.00;;;;;;;;;;5089860;28;20024;-62
2022/05/21 03:59:50;;;;;;;0.00;0.00;;;;;;;;;;5091374;28;20031;-60
2022/05/21 04:02:16;;;;;;;0.00;0.00;;;;;;;;;;5090982;28;20095;-61
2022/05/21 04:04:41;;;;;;;0.00;0.00;;;;;;;;;;5073056;28;20020;-61
2022/05/21 04:07:07;;;;;;;0.00;0.00;;;;;;;;;;5079264;28;20044;-59
2022/05/21 04:09:32;;;;;;;0.00;0.00;;;;;;;;;;5067548;28;20060;-61
2022/05/21 04:11:57;;;;;;;0.00;0.00;;;;;;;;;;5066672;28;20450;-61
2022/05/21 04:14:27;;;;;;;0.00;0.00;;;;;;;;;;5066497;28;20119;-61
2022/05/21 04:16:53;;;;;;;0.00;0.00;;;;;;;;;;5063137;28;20020;-63
2022/05/21 04:19:18;;;;;;;0.00;0.00;;;;;;;;;;5068498;28;20546;-63
2022/05/21 04:21:43;;;;;;;0.00;0.00;;;;;;;;;;5068927;28;20025;-61
2022/05/21 04:24:08;;;;;;;0.00;0.00;;;;;;;;;;5068282;28;20016;-62
2022/05/21 04:26:34;;;;;;;0.00;0.00;;;;;;;;;;5064668;28;20461;-62
2022/05/21 04:28:59;;;;;;;0.00;0.00;;;;;;;;;;5044540;28;20032;-62
2022/05/21 04:31:24;;;;;;;0.00;0.00;;;;;;;;;;5068466;28;20024;-63
2022/05/21 04:33:49;;;;;;;0.00;0.00;;;;;;;;;;5062284;28;20040;-63
2022/05/21 04:36:17;;;;;;;0.00;0.00;;;;;;;;;;5063100;28;20016;-62
2022/05/21 04:38:43;;;;;;;0.00;0.00;;;;;;;;;;5037250;28;20033;-65
2022/05/21 04:41:08;;;;;;;0.00;0.00;;;;;;;;;;5060127;28;20021;-63
2022/05/21 04:43:33;;;;;;;0.00;0.00;;;;;;;;;;5052315;28;20031;-63
2022/05/21 04:45:58;;;;;;;0.00;0.00;;;;;;;;;;5070565;28;20028;-63
2022/05/21 04:48:23;;;;;;;0.00;0.00;;;;;;;;;;5069750;28;20389;-62
2022/05/21 04:50:49;;;;;;;0.00;0.00;;;;;;;;;;5069334;28;20024;-61
2022/05/21 04:53:14;;;;;;;0.00;0.00;;;;;;;;;;5071564;28;20032;-60
2022/05/21 04:55:40;;;;;;;0.00;0.00;;;;;;;;;;5065665;28;20020;-60
2022/05/21 04:58:06;;;;;;;0.00;0.00;;;;;;;;;;5064695;28;20035;-60
2022/05/21 05:00:31;;;;;;;0.15;0.15;;;;;;;;;;5069749;28;20020;-60
2022/05/21 05:02:56;;;;;;;0.00;0.00;;;;;;;;;;5061820;28;20013;-60
2022/05/21 05:05:23;;;;;;;0.00;0.00;;;;;;;;;;5060958;28;20047;-62
2022/05/21 05:07:48;;;;;;;0.00;0.00;;;;;;;;;;5067312;28;20086;-61
2022/05/21 05:10:13;;;;;;;0.00;0.00;;;;;;;;;;5069201;28;20064;-62
2022/05/21 05:12:38;;;;;;;0.00;0.00;;;;;;;;;;5069369;28;20021;-61
2022/05/21 05:15:04;;;;;;;0.00;0.00;;;;;;;;;;5068629;28;20484;-62
2022/05/21 05:17:30;;;;;;;0.00;0.00;;;;;;;;;;5068935;28;20051;-62
2022/05/21 05:19:55;;;;;;;0.00;0.00;;;;;;;;;;5067521;28;20031;-61
2022/05/21 05:22:21;;;;;;;0.00;0.00;;;;;;;;;;5069279;28;20035;-63
2022/05/21 05:24:46;;;;;;;0.00;0.00;;;;;;;;;;5069604;28;20024;-63
2022/05/21 05:27:12;;;;;;;0.10;0.10;;;;;;;;;;5070006;28;20103;-62
2022/05/21 05:29:37;;;;;;;0.00;0.00;;;;;;;;;;5068006;28;20048;-62
2022/05/21 05:32:03;;;;;;;0.00;0.00;;;;;;;;;;5069270;28;20055;-61
2022/05/21 05:34:28;;;;;;;0.43;0.43;;;;;;;;;;5068361;28;20495;-61
2022/05/21 05:36:53;;;;;;;0.00;0.00;;;;;;;;;;5067687;28;20033;-62
2022/05/21 05:39:18;;;;;;;0.00;0.00;;;;;;;;;;5066761;28;20072;-62
2022/05/21 05:41:44;;;;;;;0.00;0.00;;;;;;;;;;5064570;28;20039;-62
2022/05/21 05:44:09;;;;;;;0.00;0.00;;;;;;;;;;5068212;28;20048;-60
2022/05/21 05:46:34;;;;;;;0.00;0.00;;;;;;;;;;5067761;28;20033;-62
2022/05/21 05:48:59;;;;;;;0.00;0.00;;;;;;;;;;5069438;28;20377;-61
2022/05/21 05:51:26;;;;;;;0.00;0.00;;;;;;;;;;5067407;28;20444;-63
2022/05/21 05:53:52;;;;;;;0.28;0.28;;;;;;;;;;5063825;28;20031;-61
2022/05/21 05:56:17;;;;;;;0.10;0.10;;;;;;;;;;5066757;28;20029;-63
2022/05/21 06:01:26;;;;;;;0.17;0.17;;;;;;;;;;5067394;28;20059;-63
2022/05/21 06:03:52;;;;;;;0.32;0.32;;;;;;;;;;5067859;28;20420;-63
2022/05/21 06:06:18;;;;;;;0.00;0.00;;;;;;;;;;5069517;28;20514;-63
2022/05/21 06:08:46;;;;;;;0.00;0.00;;;;;;;;;;5088677;28;20054;-63
2022/05/21 06:11:15;;;;;;;0.00;0.00;;;;;;;;;;5088862;28;20362;-62
2022/05/21 06:13:40;;;;;;;0.00;0.00;;;;;;;;;;5088265;28;20059;-62
2022/05/21 06:16:05;;;;;;;0.00;0.00;;;;;;;;;;5087360;28;20060;-62
2022/05/21 06:18:30;;;;;;;0.22;0.10;;;;;;;;;;5087683;28;20046;-63
2022/05/21 06:20:59;;;;;;;0.00;0.00;;;;;;;;;;5087613;28;20023;-62
2022/05/21 06:23:25;;;;;;;0.00;0.00;;;;;;;;;;5087169;28;20089;-63
2022/05/21 06:25:50;;;;;;;0.00;0.00;;;;;;;;;;5088166;28;20660;-63
2022/05/21 06:28:16;;;;;;;0.00;0.00;;;;;;;;;;5083286;28;20095;-64
2022/05/21 06:30:41;;;;;;;0.00;0.00;;;;;;;;;;5081953;28;20133;-63
2022/05/21 06:33:14;;;;;;;0.05;0.05;;;;;;;;;;5086613;28;20047;-63
2022/05/21 06:35:40;;;;;;;0.00;0.00;;;;;;;;;;5088189;28;20046;-62
2022/05/21 06:38:05;;;;;;;0.10;0.10;;;;;;;;;;5088838;28;20032;-63
2022/05/21 06:40:31;;;;;;;0.00;0.00;;;;;;;;;;5087681;28;20052;-64
2022/05/21 06:43:00;;;;;;;0.00;0.00;;;;;;;;;;5088437;28;20400;-63
2022/05/21 06:45:26;;;;;;;0.00;0.00;;;;;;;;;;5088444;28;20123;-62
2022/05/21 06:47:51;;;;;;;0.00;0.00;;;;;;;;;;5088577;28;20111;-62
2022/05/21 06:50:17;;;;;;;0.00;0.00;;;;;;;;;;5084547;28;20898;-62
2022/05/21 06:52:42;;;;;;;12.73;11.98;;;;;;;;;;5088299;28;20023;-62
2022/05/21 06:55:08;;;;;;;0.00;0.00;;;;;;;;;;5088033;28;20027;-62
2022/05/21 06:57:33;;;;;;;0.00;0.00;;;;;;;;;;5087859;28;20031;-63
2022/05/21 06:59:58;;;;;;;0.00;0.00;;;;;;;;;;5086819;28;20020;-62
2022/05/21 07:02:24;;;;;;;0.00;0.00;;;;;;;;;;5087926;28;20016;-62
2022/05/21 07:07:34;;;;;;;0.00;0.00;;;;;;;;;;5087831;28;20097;-62
2022/05/21 07:10:00;;;;;;;0.00;0.00;;;;;;;;;;5087628;28;20036;-63
2022/05/21 07:12:26;;;;;;;0.00;0.00;;;;;;;;;;5087243;28;20027;-63
2022/05/21 07:14:51;;;;;;;0.10;0.10;;;;;;;;;;5091061;28;20028;-65
2022/05/21 07:17:16;;;;;;;0.00;0.00;;;;;;;;;;5090785;28;20071;-64
2022/05/21 07:19:41;;;;;;;0.00;0.00;;;;;;;;;;5090296;28;20031;-63
2022/05/21 07:22:08;;;;;;;0.00;0.00;;;;;;;;;;5090540;28;20028;-64
2022/05/21 07:24:33;;;;;;;0.00;0.00;;;;;;;;;;5086828;28;20501;-64
2022/05/21 07:27:00;;;;;;;0.00;0.00;;;;;;;;;;5087703;28;20111;-62
2022/05/21 07:29:25;;;;;;;0.47;0.47;;;;;;;;;;5090475;28;20479;-62
2022/05/21 07:31:50;;;;;;;0.00;0.00;;;;;;;;;;5091638;28;20028;-62
2022/05/21 07:34:15;;;;;;;0.00;0.00;;;;;;;;;;5091214;28;20024;-62
2022/05/21 07:36:40;;;;;;;0.00;0.00;;;;;;;;;;5090990;28;20032;-63
2022/05/21 07:39:07;;;;;;;0.00;0.00;;;;;;;;;;5091336;28;20040;-63
2022/05/21 07:41:33;;;;;;;0.00;0.00;;;;;;;;;;5087678;28;20132;-62
2022/05/21 07:43:58;;;;;;;0.00;0.00;;;;;;;;;;5088471;28;20020;-62
2022/05/21 07:46:23;;;;;;;0.00;0.00;;;;;;;;;;5064353;28;20462;-59
2022/05/21 07:48:48;;;;;;;0.00;0.00;;;;;;;;;;5084520;28;20024;-63
2022/05/21 07:51:14;;;;;;;0.00;0.00;;;;;;;;;;5090610;28;20066;-62
2022/05/21 07:53:42;;;;;;;0.00;0.00;;;;;;;;;;5090950;28;20024;-61
2022/05/21 07:56:11;;;;;;;0.00;0.00;;;;;;;;;;5090358;28;20059;-61
2022/05/21 07:58:36;;;;;;;0.00;0.00;;;;;;;;;;5089363;28;20529;-60
2022/05/21 08:01:01;;;;;;;0.00;0.00;;;;;;;;;;5090647;28;20032;-60
2022/05/21 08:03:27;;;;;;;0.22;0.22;;;;;;;;;;5090371;28;20051;-62
2022/05/21 08:05:53;;;;;;;0.00;0.00;;;;;;;;;;5089839;28;20020;-62
2022/05/21 08:08:19;;;;;;;0.68;0.68;;;;;;;;;;5090949;28;20054;-62
2022/05/21 08:10:45;;;;;;;0.00;0.00;;;;;;;;;;5089673;28;20028;-62
2022/05/21 08:13:11;;;;;;;0.00;0.00;;;;;;;;;;5089862;28;20526;-62
2022/05/21 08:15:37;;;;;;;0.00;0.00;;;;;;;;;;5089430;28;20036;-63
2022/05/21 08:18:04;;;;;;;0.00;0.00;;;;;;;;;;5088175;28;20063;-62
2022/05/21 08:20:30;;;;;;;0.00;0.00;;;;;;;;;;5089840;28;20035;-63
2022/05/21 08:28:23;;;;;;;0.28;0.08;;;;;;;;;;5086114;28;20082;-62
2022/05/21 08:30:48;;;;;;;0.28;0.28;;;;;;;;;;5088690;28;20020;-62
2022/05/21 08:33:14;;;;;;;0.60;0.60;;;;;;;;;;5090167;28;20087;-62
2022/05/21 08:35:40;;;;;;;0.90;0.90;;;;;;;;;;5089641;28;20028;-62
2022/05/21 08:38:06;;;;;;;0.00;0.00;;;;;;;;;;5090426;28;20073;-61
2022/05/21 08:40:40;;;;;;;0.00;0.00;;;;;;;;;;5087638;28;20099;-62
2022/05/21 08:43:10;;;;;;;0.00;0.00;;;;;;;;;;5088603;28;20133;-62
2022/05/21 08:45:36;;;;;;;;;;;;;;;;;;5088129;28;20018;-63
2022/05/21 08:48:02;;;;;;;0.00;0.00;;;;;;;;;;5089726;28;19912;-63
2022/05/21 08:50:32;;;;;;;0.10;0.10;;;;;;;;;;5088415;28;20380;-64
2022/05/21 08:53:01;;;;;;;0.00;0.00;;;;;;;;;;5088502;28;20020;-64
2022/05/21 08:55:29;;;;;;;0.00;0.00;;;;;;;;;;5088919;28;20062;-62
2022/05/21 08:57:57;;;;;;;0.00;0.00;;;;;;;;;;5089745;28;20028;-63
2022/05/21 09:00:29;;;;;;;0.00;0.00;;;;;;;;;;5086953;28;20023;-64
2022/05/21 09:02:55;;;;;;;0.00;0.00;;;;;;;;;;5088914;28;20043;-64
2022/05/21 09:05:21;;;;;;;0.10;0.10;;;;;;;;;;5088751;28;20051;-64
2022/05/21 09:07:47;;;;;;;0.00;0.00;;;;;;;;;;5086734;28;20036;-63
2022/05/21 09:10:31;;;;;;;0.10;0.10;;;;;;;;;;5088449;28;20049;-63
2022/05/21 09:13:11;;;;;;;0.00;0.00;;;;;;;;;;5088800;28;20047;-63
2022/05/21 09:18:22;;;;;;;0.00;0.00;;;;;;;;;;5087768;28;20181;-62
2022/05/21 09:20:59;;;;;;;0.20;0.20;;;;;;;;;;5088821;28;20070;-63
2022/05/21 09:23:24;;;;;;;0.00;0.00;;;;;;;;;;5062579;28;20023;-62
2022/05/21 09:26:06;;;;;;;0.00;0.00;;;;;;;;;;5088456;28;20376;-62
2022/05/21 09:28:31;;;;;;;0.00;0.00;;;;;;;;;;5080367;28;20048;-62
2022/05/21 09:30:57;;;;;;;0.10;0.10;;;;;;;;;;5087544;28;20093;-61
2022/05/21 09:33:23;;;;;;;0.00;0.00;;;;;;;;;;5088117;28;20024;-63
2022/05/21 09:35:48;;;;;;;0.00;0.00;;;;;;;;;;5088830;28;20039;-62
2022/05/21 09:38:15;;;;;;;0.00;0.00;;;;;;;;;;5088126;28;20337;-60
2022/05/21 09:40:40;;;;;;;2.33;2.17;;;;;;;;;;5088134;28;20262;-61
2022/05/21 09:46:19;;;;;;;0.00;0.00;;;;;;;;;;5088562;28;20026;-61
2022/05/21 09:48:46;;;;;;;0.00;0.00;;;;;;;;;;5089160;28;20027;-59
2022/05/21 09:51:31;;;;;;;0.00;0.00;;;;;;;;;;5088546;28;20065;-60
2022/05/21 09:53:57;;;;;;;0.00;0.00;;;;;;;;;;5088962;28;20024;-62
2022/05/21 09:56:25;;;;;;;0.00;0.00;;;;;;;;;;5087596;28;20028;-60
2022/05/21 09:58:52;;;;;;;0.00;0.00;;;;;;;;;;5088835;28;20481;-59
2022/05/21 10:01:36;;;;;;;0.28;0.28;;;;;;;;;;5088413;28;20016;-60
2022/05/21 10:04:10;;;;;;;0.00;0.00;;;;;;;;;;5069732;28;20488;-60
2022/05/21 10:06:40;;;;;;;0.98;0.40;;;;;;;;;;5088225;28;20089;-61
2022/05/21 10:12:28;;;;;;;0.00;0.00;;;;;;;;;;5087244;28;20545;-60
2022/05/21 10:14:53;;;;;;;0.20;0.20;;;;;;;;;;5088461;28;20471;-60
2022/05/21 10:17:39;;;;;;;0.00;0.00;;;;;;;;;;5088323;28;20032;-60
2022/05/21 10:20:24;;;;;;;0.00;0.00;;;;;;;;;;5088522;28;20024;-61
2022/05/21 10:22:53;;;;;;;0.00;0.00;;;;;;;;;;5086933;28;20055;-61
2022/05/21 10:25:20;;;;;;;0.00;0.00;;;;;;;;;;5087947;28;20023;-60
2022/05/21 10:27:46;;;;;;;0.10;0.10;;;;;;;;;;5087585;28;20032;-60
2022/05/21 10:30:21;;;;;;;0.00;0.00;;;;;;;;;;5086228;28;20039;-61
2022/05/21 10:32:52;;;;;;;0.00;0.00;;;;;;;;;;5087217;28;20104;-61
2022/05/21 10:35:27;;;;;;;0.00;0.00;;;;;;;;;;5088251;28;20032;-61
2022/05/21 10:38:07;;;;;;;0.00;0.00;;;;;;;;;;5088115;28;20020;-61
2022/05/21 10:40:43;;;;;;;0.45;0.45;;;;;;;;;;5079724;28;20020;-62
2022/05/21 10:43:11;;;;;;;0.00;0.00;;;;;;;;;;5086794;28;20032;-63
2022/05/21 10:45:59;;;;;;;0.00;0.00;;;;;;;;;;5086449;28;20061;-61
2022/05/21 10:48:35;;;;;;;0.00;0.00;;;;;;;;;;5086670;28;20024;-60
2022/05/21 10:51:06;;;;;;;0.00;0.00;;;;;;;;;;5090539;28;20821;-60
2022/05/21 10:53:32;;;;;;;0.00;0.00;;;;;;;;;;5090464;28;20046;-60
2022/05/21 10:55:57;;;;;;;0.00;0.00;;;;;;;;;;5091895;28;20480;-59
2022/05/21 10:58:41;;;;;;;0.00;0.00;;;;;;;;;;5090324;28;20290;-60
2022/05/21 11:01:12;;;;;;;0.00;0.00;;;;;;;;;;5091523;28;20353;-59
2022/05/21 11:03:56;;;;;;;0.00;0.00;;;;;;;;;;5090601;28;20028;-61
2022/05/21 11:06:31;;;;;;;0.00;0.00;;;;;;;;;;5090950;28;20047;-61
2022/05/21 11:08:57;;;;;;;0.00;0.00;;;;;;;;;;5091135;28;20048;-61
2022/05/21 11:11:22;;;;;;;0.00;0.00;;;;;;;;;;5091730;28;20051;-61
2022/05/21 11:13:57;;;;;;;0.00;0.00;;;;;;;;;;5091641;28;20051;-62
2022/05/21 11:16:31;;;;;;;0.00;0.00;;;;;;;;;;5074345;28;20384;-63
2022/05/21 11:19:02;;;;;;;0.25;0.25;;;;;;;;;;5091152;28;20036;-62
2022/05/21 11:21:27;;;;;;;0.00;0.00;;;;;;;;;;5093067;28;20438;-62
2022/05/21 11:23:58;;;;;;;0.00;0.00;;;;;;;;;;5091556;28;20020;-61
2022/05/21 11:26:23;;;;;;;0.00;0.00;;;;;;;;;;5091068;28;20020;-60
2022/05/21 11:28:48;;;;;;;0.00;0.00;;;;;;;;;;5091651;28;20092;-60
2022/05/21 11:37:20;;;;;;;0.00;0.00;;;;;;;;;;5090331;28;20046;-61
2022/05/21 11:39:45;;;;;;;0.00;0.00;;;;;;;;;;5089492;28;20051;-61
2022/05/21 11:42:14;;;;;;;0.20;0.10;;;;;;;;;;5091823;28;20016;-59
2022/05/21 11:47:22;;;;;;;0.00;0.00;;;;;;;;;;5091616;28;20031;-59
2022/05/21 11:50:10;;;;;;;0.00;0.00;;;;;;;;;;5090470;28;20031;-61
2022/05/21 11:52:35;;;;;;;0.00;0.00;;;;;;;;;;5080844;28;20110;-59
2022/05/21 11:55:15;;;;;;;0.55;0.55;;;;;;;;;;5090768;28;20099;-59
2022/05/21 11:57:42;;;;;;;0.00;0.00;;;;;;;;;;5073658;28;20066;-60
2022/05/21 12:00:07;;;;;;;0.00;0.00;;;;;;;;;;5090084;28;20118;-58
2022/05/21 12:02:34;;;;;;;0.43;0.30;;;;;;;;;;5091769;28;20065;-59
2022/05/21 12:05:08;;;;;;;1.00;0.57;;;;;;;;;;5091866;28;20026;-58
2022/05/21 12:07:53;;;;;;;0.10;0.10;;;;;;;;;;5089497;28;20475;-58
2022/05/21 12:10:24;;;;;;;0.00;0.00;;;;;;;;;;5090663;28;20550;-58
2022/05/21 12:13:02;;;;;;;0.00;0.00;;;;;;;;;;5091324;28;20024;-58
2022/05/21 12:15:35;;;;;;;0.00;0.00;;;;;;;;;;5090096;28;20024;-57
2022/05/21 12:18:03;;;;;;;0.05;0.05;;;;;;;;;;5064683;28;20059;-57
2022/05/21 12:20:45;;;;;;;0.00;0.00;;;;;;;;;;5090542;28;20028;-57
2022/05/21 12:23:33;;;;;;;0.00;0.00;;;;;;;;;;5091583;28;20024;-58
2022/05/21 12:25:59;;;;;;;0.00;0.00;;;;;;;;;;5091424;28;20078;-59
2022/05/21 12:28:29;;;;;;;0.00;0.00;;;;;;;;;;5091888;28;20131;-58
2022/05/21 12:30:59;;;;;;;0.22;0.22;;;;;;;;;;5092162;28;20054;-59
2022/05/21 12:33:31;;;;;;;0.00;0.00;;;;;;;;;;5083977;28;20376;-57
2022/05/21 12:36:00;;;;;;;0.00;0.00;;;;;;;;;;5088161;28;20099;-58
2022/05/21 12:38:31;;;;;;;0.00;0.00;;;;;;;;;;5089995;28;20060;-58
2022/05/21 12:41:11;;;;;;;0.00;0.00;;;;;;;;;;5091344;28;20354;-60
2022/05/21 12:43:45;;;;;;;0.00;0.00;;;;;;;;;;5088818;28;20022;-58
2022/05/21 12:46:25;;;;;;;0.00;0.00;;;;;;;;;;5088209;28;20026;-58
2022/05/21 12:49:20;;;;;;;0.43;0.43;;;;;;;;;;5086880;28;20078;-57
2022/05/21 12:51:48;;;;;;;0.32;0.32;;;;;;;;;;5084353;28;20069;-59
2022/05/21 12:54:18;;;;;;;0.00;0.00;;;;;;;;;;5091790;28;20032;-61
2022/05/21 12:56:44;;;;;;;0.00;0.00;;;;;;;;;;5093973;28;20020;-58
2022/05/21 12:59:11;;;;;;;0.00;0.00;;;;;;;;;;5090718;28;20020;-59
2022/05/21 13:01:43;;;;;;;0.00;0.00;;;;;;;;;;5091918;28;20028;-58
2022/05/21 13:04:28;;;;;;;0.00;0.00;;;;;;;;;;5091773;28;20020;-58
2022/05/21 13:06:56;;;;;;;0.00;0.00;;;;;;;;;;5090523;28;20463;-57
2022/05/21 13:09:21;;;;;;;0.30;0.30;;;;;;;;;;5090407;28;20020;-57
2022/05/21 13:11:47;;;;;;;0.00;0.00;;;;;;;;;;5090419;28;20111;-57
2022/05/21 13:14:15;;;;;;;0.52;0.52;;;;;;;;;;5091438;28;20016;-58
2022/05/21 13:16:47;;;;;;;0.00;0.00;;;;;;;;;;5092584;28;20042;-59
2022/05/21 13:19:28;;;;;;;0.00;0.00;;;;;;;;;;5091755;28;20089;-58
2022/05/21 13:21:53;;;;;;;0.20;0.20;;;;;;;;;;5090175;28;20336;-58
2022/05/21 13:24:33;;;;;;;0.00;0.00;;;;;;;;;;5086628;28;20099;-57
2022/05/21 13:27:06;;;;;;;0.00;0.00;;;;;;;;;;5088368;28;20260;-58
2022/05/21 13:29:31;;;;;;;0.00;0.00;;;;;;;;;;5089386;28;20030;-57
2022/05/21 13:32:12;;;;;;;0.00;0.00;;;;;;;;;;5090580;28;20103;-59
2022/05/21 13:34:37;;;;;;;0.10;0.10;;;;;;;;;;5090046;28;20024;-59
2022/05/21 13:37:03;;;;;;;0.00;0.00;;;;;;;;;;5089662;28;20445;-60
2022/05/21 13:39:30;;;;;;;0.00;0.00;;;;;;;;;;5090022;28;20465;-58
2022/05/21 13:42:10;;;;;;;0.00;0.00;;;;;;;;;;5090442;28;20020;-59
2022/05/21 13:44:36;;;;;;;;;;;;;;;;;;5088499;28;20091;-59
2022/05/21 13:47:04;;;;;;;0.00;0.00;;;;;;;;;;5089429;28;19995;-59
2022/05/21 13:49:37;;;;;;;0.00;0.00;;;;;;;;;;5089569;28;20020;-60
2022/05/21 13:52:03;;;;;;;0.00;0.00;;;;;;;;;;5090472;28;20051;-60
2022/05/21 13:54:30;;;;;;;0.00;0.00;;;;;;;;;;5090424;28;20016;-60
2022/05/21 13:57:10;;;;;;;0.00;0.00;;;;;;;;;;5090198;28;20103;-60
2022/05/21 13:59:47;;;;;;;0.00;0.00;;;;;;;;;;5091206;28;20036;-60
2022/05/21 14:02:17;;;;;;;0.00;0.00;;;;;;;;;;5088180;28;20153;-60
2022/05/21 14:04:43;;;;;;;0.00;0.00;;;;;;;;;;5087446;28;20024;-59
2022/05/21 14:07:21;;;;;;;0.00;0.00;;;;;;;;;;5070973;28;20033;-59
2022/05/21 14:09:47;;;;;;;0.10;0.10;;;;;;;;;;5060086;28;20485;-59
2022/05/21 14:12:38;;;;;;;0.00;0.00;;;;;;;;;;5057822;28;20078;-59
2022/05/21 14:15:30;;;;;;;0.00;0.00;;;;;;;;;;5026049;28;20042;-60
2022/05/21 14:18:01;;;;;;;0.00;0.00;;;;;;;;;;5064168;28;20098;-59
2022/05/21 14:20:26;;;;;;;0.00;0.00;;;;;;;;;;5060566;28;20473;-59
2022/05/21 14:22:52;;;;;;;0.00;0.00;;;;;;;;;;5064572;28;20021;-59
2022/05/21 14:25:24;;;;;;;0.00;0.00;;;;;;;;;;5061163;28;20079;-60
2022/05/21 14:27:58;;;;;;;0.32;0.32;;;;;;;;;;5067453;28;20416;-59
2022/05/21 14:30:34;;;;;;;0.00;0.00;;;;;;;;;;5066913;28;20020;-59
2022/05/21 14:33:29;;;;;;;0.00;0.00;;;;;;;;;;5066748;28;20035;-59
2022/05/21 14:35:55;;;;;;;0.00;0.00;;;;;;;;;;5051581;28;20055;-59
2022/05/21 14:38:23;;;;;;;0.00;0.00;;;;;;;;;;5066886;28;20043;-59
2022/05/21 14:40:58;;;;;;;0.00;0.00;;;;;;;;;;5067605;28;20043;-58
2022/05/21 14:43:23;;;;;;;0.00;0.00;;;;;;;;;;5066326;28;20465;-58
2022/05/21 14:45:49;;;;;;;0.98;0.43;;;;;;;;;;5068502;28;20120;-56
2022/05/21 14:48:14;;;;;;;0.00;0.00;;;;;;;;;;5054238;28;20043;-57
2022/05/21 14:53:25;;;;;;;0.00;0.00;;;;;;;;;;5065342;28;20040;-60
2022/05/21 14:55:50;;;;;;;0.00;0.00;;;;;;;;;;5065748;28;20029;-59
2022/05/21 14:58:16;;;;;;;0.00;0.00;;;;;;;;;;5066919;28;20043;-59
2022/05/21 15:00:41;;;;;;;0.00;0.00;;;;;;;;;;5066984;28;20017;-59
2022/05/21 15:03:07;;;;;;;0.00;0.00;;;;;;;;;;5057362;28;20208;-61
2022/05/21 15:05:34;;;;;;;0.00;0.00;;;;;;;;;;5066191;28;20024;-58
2022/05/21 15:08:00;;;;;;;0.00;0.00;;;;;;;;;;5083626;28;20169;-59
2022/05/21 15:10:25;;;;;;;0.00;0.00;;;;;;;;;;5085190;28;20028;-59
2022/05/21 15:12:51;;;;;;;0.00;0.00;;;;;;;;;;5085082;28;20058;-60
2022/05/21 15:15:17;;;;;;;0.50;0.08;;;;;;;;;;5085297;28;20471;-59
2022/05/21 15:17:43;;;;;;;0.00;0.00;;;;;;;;;;5083223;28;20027;-59
2022/05/21 15:20:10;;;;;;;0.00;0.00;;;;;;;;;;5085927;28;20749;-59
2022/05/21 15:22:36;;;;;;;0.00;0.00;;;;;;;;;;5086790;28;20021;-63
2022/05/21 15:25:04;;;;;;;0.43;0.43;;;;;;;;;;5066983;28;20047;-61
2022/05/21 15:27:30;;;;;;;0.00;0.00;;;;;;;;;;5083812;28;20384;-60
2022/05/21 15:29:55;;;;;;;0.00;0.00;;;;;;;;;;5085769;28;20115;-60